Aeroporto :
LOGIN :

Iscrizione | Disclaimer

   EN    FR    IT 

 










Sommario :    VFR   VFR Marginale   IFR   IFR Intensivo   IFR Molto Intensivo
Visibilità : 
Base nubi : 
>= 8 km
>= 3000ft
5 / 8 km
1000 / 3000 ft
1500m / 5 km
500 / 1000 ft
800 / 1500m
200 / 500 ft
< 800m
< 200 ft
Simboli :   Temporali  Nebbia  Neve Forte  Precipitazioni Forti  Vento > 20 kt
SIGMETs :   Varie  Temporali  Ghiacco  Turbolenza  Onda orograficha  Ceneri Vulcaniche






- Altitudine del aeroporto : 1470 ft


LSMD - Dubendorf Military

ULTIMO METAR :
  • 231850Z AUTO VRB02KT 9999NDV FEW091 13/09 Q1018 RMK

METARs OBSOLETI :
  • 231820Z 00000KT 9999 FEW094 15/08 Q1018 RMK BLU+
  • 231750Z 00000KT CAVOK 15/08 Q1018 RMK BLU
  • 231720Z AUTO VRB02KT 9999NDV FEW082 15/08 Q1018 RMK
  • 231650Z AUTO VRB01KT 9999NDV FEW025 SCT074 15/08 Q1018 RMK
  • 231620Z AUTO VRB02KT 9999NDV FEW070 SCT081 16/10 Q1018 RMK
  • 231550Z AUTO 22004KT 140V250 9999NDV FEW022 BKN120 14/09 Q1018 RMK
  • 231520Z AUTO VRB01KT 9999NDV BKN054 14/10 Q1018 RMK
  • 231450Z AUTO VRB01KT 9999NDV BKN054 14/09 Q1018 RMK

Previsioni scadute.



MetMap, La meteo Aeronautica in un colpo d'occhio ! - Copyright ORBIFLY Dicembre 2007 - Disclaimer

ORBIFLY MET'MAP TEAM :

Programmazione e sviluppo : Alexandra Zaïnal
Concezione : Baudouin d'Aumeries
Supporto tecnico e logistico : Manuel Goepfert
Aiuto : Marc-Olivier Méhu
Aiuto per la traduzione : Arnaldo La Scala




FONTI E CREDITI :

   NOAA